createdAt,value
2022-12-09T00:01:16.397Z,9.25
2022-12-09T00:03:43.768Z,10.70
2022-12-09T00:06:20.874Z,8.43
2022-12-09T00:08:49.168Z,10.45
2022-12-09T00:11:16.452Z,8.57
2022-12-09T00:13:43.655Z,10.57
2022-12-09T00:16:13.656Z,8.05
2022-12-09T00:18:41.875Z,10.45
2022-12-09T00:21:18.978Z,7.20
2022-12-09T00:23:46.134Z,6.00
2022-12-09T00:26:13.117Z,10.38
2022-12-09T00:28:40.471Z,10.73
2022-12-09T00:31:07.972Z,7.07
2022-12-09T00:33:35.609Z,8.93
2022-12-09T00:36:07.275Z,10.95
2022-12-09T00:41:02.043Z,9.65
2022-12-09T00:43:28.855Z,7.60
2022-12-09T00:45:55.941Z,11.45
2022-12-09T00:48:23.138Z,7.95
2022-12-09T00:50:50.084Z,9.57
2022-12-09T00:53:16.991Z,8.13
2022-12-09T00:55:45.229Z,11.80
2022-12-09T00:58:13.442Z,9.25
2022-12-09T01:00:40.995Z,12.23
2022-12-09T01:03:16.195Z,8.75
2022-12-09T01:05:43.583Z,10.98
2022-12-09T01:08:12.630Z,8.20
2022-12-09T01:10:41.026Z,12.10
2022-12-09T01:13:08.593Z,11.23
2022-12-09T01:15:36.732Z,10.38
2022-12-09T01:18:04.028Z,9.82
2022-12-09T01:20:31.028Z,10.45
2022-12-09T01:22:59.461Z,12.13
2022-12-09T01:25:27.064Z,11.15
2022-12-09T01:27:53.957Z,10.05
2022-12-09T01:30:20.982Z,10.93
2022-12-09T01:32:48.455Z,10.52
2022-12-09T01:35:15.575Z,11.60
2022-12-09T01:37:42.618Z,11.82
2022-12-09T01:40:16.677Z,10.10
2022-12-09T01:42:43.650Z,8.23
2022-12-09T01:45:23.446Z,10.13
2022-12-09T01:48:14.253Z,9.63
2022-12-09T01:50:54.976Z,10.70
2022-12-09T01:53:27.411Z,9.55
2022-12-09T01:55:59.625Z,9.70
2022-12-09T01:58:28.417Z,8.85
2022-12-09T02:00:55.634Z,9.65
2022-12-09T02:03:22.711Z,10.23
2022-12-09T02:05:50.441Z,10.98
2022-12-09T02:08:19.697Z,12.27
2022-12-09T02:11:00.915Z,12.48
2022-12-09T02:14:01.448Z,12.48
2022-12-09T02:16:34.632Z,10.05
2022-12-09T02:19:34.944Z,12.70
2022-12-09T02:22:01.869Z,11.30
2022-12-09T02:24:46.130Z,12.45
2022-12-09T02:27:16.508Z,11.90
2022-12-09T02:29:59.637Z,14.02
2022-12-09T02:32:51.540Z,10.90
2022-12-09T02:35:55.647Z,9.00
2022-12-09T02:38:27.868Z,11.25
2022-12-09T02:41:16.439Z,10.25
2022-12-09T02:43:50.749Z,10.82
2022-12-09T02:46:23.923Z,11.07
2022-12-09T02:48:55.233Z,11.85
2022-12-09T02:51:24.616Z,9.23
2022-12-09T02:53:59.695Z,8.50
2022-12-09T02:56:27.936Z,11.43
2022-12-09T02:58:54.769Z,9.52
2022-12-09T03:01:45.619Z,11.43
2022-12-09T03:04:19.879Z,11.10
2022-12-09T03:06:52.342Z,9.88
2022-12-09T03:09:34.865Z,10.68
2022-12-09T03:12:07.081Z,11.32
2022-12-09T03:14:41.341Z,12.05
2022-12-09T03:17:17.965Z,10.65
2022-12-09T03:19:51.020Z,12.18
2022-12-09T03:22:25.005Z,12.00
2022-12-09T03:25:02.126Z,13.25
2022-12-09T03:27:35.920Z,13.35
2022-12-09T03:30:05.908Z,13.07
2022-12-09T03:32:33.975Z,9.75
2022-12-09T03:35:11.388Z,11.35
2022-12-09T03:37:42.121Z,11.73
2022-12-09T03:40:14.740Z,17.45
2022-12-09T03:42:54.484Z,10.48
2022-12-09T03:45:23.632Z,11.45
2022-12-09T03:47:51.598Z,10.57
2022-12-09T03:50:21.393Z,12.27
2022-12-09T03:53:00.256Z,11.25
2022-12-09T03:55:34.781Z,11.70
2022-12-09T03:58:04.372Z,14.52
2022-12-09T04:00:31.256Z,16.13
2022-12-09T04:02:58.170Z,16.00
2022-12-09T04:05:25.170Z,18.65
2022-12-09T04:07:52.065Z,12.77
2022-12-09T04:10:19.489Z,13.30
2022-12-09T04:12:47.394Z,11.45
2022-12-09T04:15:14.577Z,14.40
2022-12-09T04:17:41.709Z,14.15
2022-12-09T04:20:09.812Z,15.75
2022-12-09T04:22:36.970Z,11.60
2022-12-09T04:25:03.812Z,14.32
2022-12-09T04:27:30.791Z,14.45
2022-12-09T04:29:57.808Z,14.93
2022-12-09T04:32:24.605Z,11.73
2022-12-09T04:34:51.525Z,11.40
2022-12-09T04:37:19.164Z,14.07
2022-12-09T04:39:46.196Z,12.73
2022-12-09T04:42:12.971Z,11.63
2022-12-09T04:44:39.934Z,11.93
2022-12-09T04:47:07.069Z,14.93
2022-12-09T04:49:33.845Z,12.00
2022-12-09T04:52:01.387Z,14.10
2022-12-09T04:54:28.391Z,13.90
2022-12-09T04:56:55.084Z,13.70
2022-12-09T04:59:23.004Z,16.05
2022-12-09T05:01:49.820Z,13.88
2022-12-09T05:04:17.359Z,13.40
2022-12-09T05:06:44.371Z,14.52
2022-12-09T05:09:13.701Z,19.90
2022-12-09T05:11:41.078Z,14.85
2022-12-09T05:14:07.983Z,17.85
2022-12-09T05:16:35.077Z,14.68
2022-12-09T05:19:02.466Z,17.50
2022-12-09T05:21:30.062Z,15.90
2022-12-09T05:23:58.254Z,15.05
2022-12-09T05:26:25.755Z,15.63
2022-12-09T05:28:53.085Z,15.43
2022-12-09T05:31:22.845Z,15.77
2022-12-09T05:33:51.344Z,15.10
2022-12-09T05:36:21.139Z,13.02
2022-12-09T05:38:48.956Z,14.35
2022-12-09T05:41:19.025Z,15.05
2022-12-09T05:43:46.479Z,13.10
2022-12-09T05:46:14.749Z,13.68
2022-12-09T05:48:42.424Z,16.30
2022-12-09T05:51:14.337Z,13.40
2022-12-09T05:53:42.190Z,13.77
2022-12-09T05:56:09.144Z,15.38
2022-12-09T05:58:36.228Z,17.77
2022-12-09T06:01:08.002Z,16.48
2022-12-09T06:03:35.598Z,16.90
2022-12-09T06:06:11.468Z,16.25
2022-12-09T06:08:39.494Z,15.15
2022-12-09T06:11:12.764Z,16.55
2022-12-09T06:13:39.991Z,15.10
2022-12-09T06:16:07.883Z,18.60
2022-12-09T06:18:35.328Z,13.48
2022-12-09T06:21:10.163Z,13.82
2022-12-09T06:23:41.468Z,13.82
2022-12-09T06:26:26.058Z,15.27
2022-12-09T06:28:54.233Z,15.57
2022-12-09T06:31:22.200Z,14.63
2022-12-09T06:33:58.363Z,14.40
2022-12-09T06:36:27.857Z,18.08
2022-12-09T06:38:56.704Z,15.20
2022-12-09T06:41:24.502Z,15.68
2022-12-09T06:43:51.495Z,14.18
2022-12-09T06:46:26.097Z,18.63
2022-12-09T06:48:54.887Z,17.77
2022-12-09T06:51:23.642Z,18.60
2022-12-09T06:53:50.892Z,17.17
2022-12-09T06:56:18.476Z,13.40
2022-12-09T06:58:47.393Z,14.77
2022-12-09T07:01:23.091Z,15.82
2022-12-09T07:03:53.219Z,18.13
2022-12-09T07:06:31.126Z,14.00
2022-12-09T07:09:01.356Z,14.20
2022-12-09T07:11:29.500Z,15.33
2022-12-09T07:13:56.391Z,14.68
2022-12-09T07:16:23.851Z,13.15
2022-12-09T07:18:51.187Z,17.90
2022-12-09T07:21:20.111Z,19.00
2022-12-09T07:23:48.530Z,16.05
2022-12-09T07:26:16.365Z,16.83
2022-12-09T07:28:44.237Z,15.20
2022-12-09T07:31:23.573Z,14.75
2022-12-09T07:33:51.889Z,19.55
2022-12-09T07:36:21.559Z,18.17
2022-12-09T07:38:53.833Z,14.07
2022-12-09T07:43:48.247Z,15.35
2022-12-09T07:46:17.439Z,16.58
2022-12-09T07:48:45.070Z,13.55
2022-12-09T07:51:12.707Z,15.80
2022-12-09T07:53:40.551Z,16.67
2022-12-09T07:56:11.700Z,16.85
2022-12-09T07:58:38.971Z,15.02
2022-12-09T08:01:15.559Z,13.63
2022-12-09T08:03:43.513Z,16.25
2022-12-09T08:06:15.325Z,18.27
2022-12-09T08:08:44.098Z,15.15
2022-12-09T08:11:14.626Z,16.75
2022-12-09T08:13:42.400Z,17.45
2022-12-09T08:16:12.317Z,16.50
2022-12-09T08:18:40.523Z,15.70
2022-12-09T08:21:11.040Z,15.43
2022-12-09T08:23:38.178Z,18.42
2022-12-09T08:26:06.161Z,17.92
2022-12-09T08:28:33.375Z,16.77
2022-12-09T08:31:10.644Z,15.95
2022-12-09T08:33:38.482Z,16.45
2022-12-09T08:36:11.612Z,16.15
2022-12-09T08:38:39.458Z,18.40
2022-12-09T08:41:35.389Z,16.00
2022-12-09T08:44:08.884Z,15.75
2022-12-09T08:46:37.483Z,16.05
2022-12-09T08:49:05.671Z,15.00
2022-12-09T08:51:33.305Z,17.95
2022-12-09T08:54:00.703Z,13.82
2022-12-09T08:56:28.517Z,16.85
2022-12-09T08:58:55.882Z,13.05
2022-12-09T09:01:26.728Z,13.18
2022-12-09T09:03:53.813Z,18.67
2022-12-09T09:06:21.284Z,17.30
2022-12-09T09:08:48.762Z,14.60
2022-12-09T09:11:18.978Z,12.93
2022-12-09T09:13:51.623Z,15.10
2022-12-09T09:16:21.689Z,12.27
2022-12-09T09:18:49.293Z,13.35
2022-12-09T09:21:21.762Z,12.57
2022-12-09T09:23:49.496Z,15.07
2022-12-09T09:26:20.085Z,14.75
2022-12-09T09:28:48.066Z,15.35
2022-12-09T09:31:18.440Z,15.93
2022-12-09T09:33:46.946Z,15.95
2022-12-09T09:36:20.909Z,12.63
2022-12-09T09:38:53.193Z,13.68
2022-12-09T09:42:07.404Z,15.60
2022-12-09T09:44:48.677Z,14.57
2022-12-09T09:47:34.739Z,16.05
2022-12-09T09:50:31.950Z,13.25
2022-12-09T09:53:10.328Z,14.32
2022-12-09T09:55:52.491Z,15.65
2022-12-09T09:58:39.840Z,12.88
2022-12-09T10:01:16.720Z,14.40
2022-12-09T10:03:53.708Z,14.82
2022-12-09T10:06:47.644Z,18.63
2022-12-09T10:09:33.220Z,12.77
2022-12-09T10:12:00.786Z,14.68
2022-12-09T10:14:49.811Z,14.27
2022-12-09T10:17:36.544Z,13.95
2022-12-09T10:20:24.456Z,14.07
2022-12-09T10:23:04.123Z,15.50
2022-12-09T10:25:37.965Z,12.13
2022-12-09T10:28:08.032Z,14.55
2022-12-09T10:30:43.960Z,13.88
2022-12-09T10:33:13.720Z,14.18
2022-12-09T10:35:41.499Z,12.32
2022-12-09T10:38:11.163Z,13.07
2022-12-09T10:41:16.612Z,16.67
2022-12-09T10:43:44.349Z,14.45
2022-12-09T10:46:24.391Z,14.07
2022-12-09T10:48:58.820Z,13.07
2022-12-09T10:51:29.021Z,18.70
2022-12-09T10:54:10.501Z,13.48
2022-12-09T10:56:40.015Z,13.50
2022-12-09T10:59:30.009Z,14.90
2022-12-09T11:01:59.730Z,13.55
2022-12-09T11:04:30.993Z,11.02
2022-12-09T11:07:14.235Z,15.25
2022-12-09T11:10:04.039Z,15.07
2022-12-09T11:12:40.626Z,13.90
2022-12-09T11:15:29.466Z,11.70
2022-12-09T11:18:00.413Z,12.40
2022-12-09T11:20:32.760Z,13.80
2022-12-09T11:23:18.250Z,13.15
2022-12-09T11:26:00.306Z,16.13
2022-12-09T11:28:30.225Z,19.65
2022-12-09T11:31:35.367Z,20.20
2022-12-09T11:34:15.849Z,12.98
2022-12-09T11:36:50.111Z,20.60
2022-12-09T11:39:50.293Z,15.18
2022-12-09T11:42:19.988Z,13.98
2022-12-09T11:44:53.012Z,11.32
2022-12-09T11:47:57.735Z,12.27
2022-12-09T11:50:33.039Z,13.55
2022-12-09T11:53:12.065Z,11.50
2022-12-09T11:55:45.145Z,11.82
2022-12-09T11:58:16.009Z,14.50
2022-12-09T12:01:07.369Z,13.73
2022-12-09T12:03:42.286Z,12.85
2022-12-09T12:06:20.559Z,14.07
2022-12-09T12:09:18.920Z,11.82
2022-12-09T12:11:55.409Z,15.10
2022-12-09T12:14:28.180Z,10.60
2022-12-09T12:17:18.068Z,11.32
2022-12-09T12:19:50.164Z,11.27
2022-12-09T12:22:37.115Z,12.93
2022-12-09T12:25:35.358Z,15.73
2022-12-09T12:28:20.800Z,12.95
2022-12-09T12:30:54.499Z,10.80
2022-12-09T12:34:23.377Z,11.00
2022-12-09T12:37:25.512Z,12.82
2022-12-09T12:40:07.579Z,11.63
2022-12-09T12:43:14.698Z,11.80
2022-12-09T12:46:19.968Z,11.75
2022-12-09T12:48:55.899Z,11.27
2022-12-09T12:51:39.484Z,12.65
2022-12-09T12:54:36.255Z,8.55
2022-12-09T12:57:27.493Z,11.10
2022-12-09T13:00:01.218Z,14.15
2022-12-09T13:02:39.793Z,11.75
2022-12-09T13:05:20.258Z,12.63
2022-12-09T13:07:55.915Z,10.38
2022-12-09T13:10:33.762Z,13.65
2022-12-09T13:13:02.443Z,10.48
2022-12-09T13:15:46.334Z,14.05
2022-12-09T13:18:27.119Z,14.07
2022-12-09T13:20:59.170Z,12.82
2022-12-09T13:24:01.960Z,12.43
2022-12-09T13:26:54.235Z,9.55
2022-12-09T13:29:31.784Z,9.40
2022-12-09T13:32:19.562Z,9.82
2022-12-09T13:34:54.332Z,11.10
2022-12-09T13:37:33.864Z,11.15
2022-12-09T13:40:02.048Z,11.73
2022-12-09T13:42:47.643Z,13.40
2022-12-09T13:45:24.789Z,12.80
2022-12-09T13:47:55.689Z,16.63
2022-12-09T13:50:42.112Z,11.32
2022-12-09T13:53:20.877Z,13.30
2022-12-09T13:56:05.576Z,11.07
2022-12-09T13:59:13.434Z,10.63
2022-12-09T14:02:01.052Z,12.02
2022-12-09T14:04:35.249Z,14.90
2022-12-09T14:07:14.244Z,14.15
2022-12-09T14:09:48.901Z,11.05
2022-12-09T14:12:44.444Z,10.68
2022-12-09T14:15:24.672Z,14.23
2022-12-09T14:17:51.372Z,14.50
2022-12-09T14:20:23.251Z,12.90
2022-12-09T14:23:15.166Z,14.13
2022-12-09T14:28:34.366Z,13.60
2022-12-09T14:31:08.054Z,15.15
2022-12-09T14:33:45.412Z,12.52
2022-12-09T14:36:15.026Z,14.82
2022-12-09T14:41:58.572Z,15.30
2022-12-09T14:44:55.099Z,13.77
2022-12-09T14:47:30.335Z,18.40
2022-12-09T14:50:06.946Z,13.05
2022-12-09T14:52:34.672Z,12.85
2022-12-09T14:55:06.167Z,14.02
2022-12-09T14:57:44.433Z,14.90
2022-12-09T15:00:34.672Z,16.85
2022-12-09T15:03:34.248Z,16.85
2022-12-09T15:06:05.439Z,18.15
2022-12-09T15:08:34.096Z,17.45
2022-12-09T15:11:05.539Z,15.02
2022-12-09T15:13:34.591Z,13.50
2022-12-09T15:16:01.675Z,14.80
2022-12-09T15:18:30.774Z,13.23
2022-12-09T15:20:59.684Z,15.65
2022-12-09T15:23:35.893Z,16.92
2022-12-09T15:26:47.285Z,16.55
2022-12-09T15:29:20.926Z,15.80
2022-12-09T15:31:50.633Z,14.20
2022-12-09T15:34:24.808Z,15.82
2022-12-09T15:36:57.553Z,15.57
2022-12-09T15:39:42.189Z,14.93
2022-12-09T15:42:14.576Z,14.27
2022-12-09T15:45:06.343Z,15.68
2022-12-09T15:47:40.203Z,15.02
2022-12-09T15:50:37.063Z,15.73
2022-12-09T15:53:15.108Z,15.73
2022-12-09T15:55:53.896Z,14.52
2022-12-09T15:58:27.861Z,16.42
2022-12-09T16:00:55.555Z,14.00
2022-12-09T16:03:28.567Z,13.55
2022-12-09T16:05:58.510Z,16.38
2022-12-09T16:08:33.368Z,15.85
2022-12-09T16:11:00.242Z,16.02
2022-12-09T16:13:27.187Z,16.77
2022-12-09T16:16:25.407Z,13.73
2022-12-09T16:18:52.230Z,20.60
2022-12-09T16:21:28.260Z,15.77
2022-12-09T16:24:04.786Z,18.33
2022-12-09T16:26:36.046Z,16.77
2022-12-09T16:29:16.412Z,16.70
2022-12-09T16:31:43.271Z,16.80
2022-12-09T16:34:21.279Z,13.65
2022-12-09T16:36:55.833Z,15.73
2022-12-09T16:39:25.631Z,16.50
2022-12-09T16:41:52.266Z,16.88
2022-12-09T16:44:31.293Z,15.98
2022-12-09T16:47:19.053Z,15.90
2022-12-09T16:49:47.917Z,20.35
2022-12-09T16:52:18.000Z,16.88
2022-12-09T16:54:46.856Z,20.90
2022-12-09T16:57:18.288Z,16.23
2022-12-09T16:59:46.354Z,18.67
2022-12-09T17:02:33.958Z,16.98
2022-12-09T17:05:01.154Z,17.45
2022-12-09T17:07:28.089Z,16.90
2022-12-09T17:09:54.752Z,15.82
2022-12-09T17:12:21.527Z,15.57
2022-12-09T17:14:48.285Z,21.30
2022-12-09T17:17:15.005Z,16.63
2022-12-09T17:19:42.272Z,21.38
2022-12-09T17:22:09.215Z,18.35
2022-12-09T17:24:38.804Z,23.17
2022-12-09T17:27:05.587Z,25.02
2022-12-09T17:29:32.325Z,19.70
2022-12-09T17:31:59.118Z,19.02
2022-12-09T17:34:26.084Z,17.58
2022-12-09T17:36:55.330Z,19.27
2022-12-09T17:39:24.583Z,15.52
2022-12-09T17:41:51.377Z,18.67
2022-12-09T17:44:18.501Z,17.58
2022-12-09T17:46:45.246Z,16.33
2022-12-09T17:49:11.962Z,18.73
2022-12-09T17:51:38.712Z,20.02
2022-12-09T17:54:05.986Z,15.63
2022-12-09T17:56:32.990Z,17.55
2022-12-09T17:59:10.230Z,19.58
2022-12-09T18:01:38.722Z,14.60
2022-12-09T18:04:09.510Z,17.67
2022-12-09T18:06:39.324Z,19.10
2022-12-09T18:09:08.382Z,17.48
2022-12-09T18:11:36.036Z,20.23
2022-12-09T18:14:03.467Z,21.73
2022-12-09T18:16:30.205Z,20.20
2022-12-09T18:19:02.168Z,20.90
2022-12-09T18:21:29.280Z,18.60
2022-12-09T18:23:56.117Z,22.67
2022-12-09T18:26:28.546Z,26.13
2022-12-09T18:28:57.437Z,24.30
2022-12-09T18:31:27.429Z,24.23
2022-12-09T18:33:54.124Z,18.80
2022-12-09T18:36:24.354Z,23.10
2022-12-09T18:38:51.423Z,16.95
2022-12-09T18:41:21.196Z,19.92
2022-12-09T18:43:49.817Z,19.83
2022-12-09T18:46:26.177Z,19.88
2022-12-09T18:49:16.407Z,20.27
2022-12-09T18:51:44.895Z,24.42
2022-12-09T18:54:16.714Z,20.25
2022-12-09T18:56:43.759Z,18.25
2022-12-09T18:59:11.808Z,18.15
2022-12-09T19:01:41.604Z,20.60
2022-12-09T19:04:14.356Z,19.77
2022-12-09T19:06:43.456Z,16.63
2022-12-09T19:09:18.961Z,17.45
2022-12-09T19:11:46.678Z,18.42
2022-12-09T19:14:14.856Z,15.18
2022-12-09T19:16:42.442Z,18.23
2022-12-09T19:19:15.362Z,16.05
2022-12-09T19:21:42.833Z,18.23
2022-12-09T19:24:27.371Z,19.52
2022-12-09T19:26:56.480Z,14.38
2022-12-09T19:29:28.002Z,15.77
2022-12-09T19:31:57.126Z,16.88
2022-12-09T19:34:29.638Z,16.15
2022-12-09T19:36:58.857Z,15.27
2022-12-09T19:39:31.397Z,14.80
2022-12-09T19:41:59.143Z,14.10
2022-12-09T19:44:52.507Z,16.02
2022-12-09T19:47:13.211Z,18.17
2022-12-09T19:49:42.030Z,13.40
2022-12-09T19:52:08.827Z,14.25
2022-12-09T19:54:35.510Z,14.10
2022-12-09T19:57:02.275Z,18.13
2022-12-09T19:59:29.184Z,17.85
2022-12-09T20:01:56.019Z,14.45
2022-12-09T20:04:48.011Z,18.13
2022-12-09T20:07:11.556Z,17.38
2022-12-09T20:09:39.884Z,15.68
2022-12-09T20:12:09.913Z,15.80
2022-12-09T20:14:36.802Z,19.52
2022-12-09T20:17:03.572Z,24.58
2022-12-09T20:19:31.377Z,20.67
2022-12-09T20:21:58.161Z,13.10
2022-12-09T20:24:25.431Z,16.85
2022-12-09T20:26:52.133Z,15.80
2022-12-09T20:29:18.837Z,16.40
2022-12-09T20:31:45.587Z,13.15
2022-12-09T20:34:15.956Z,14.70
2022-12-09T20:36:44.523Z,18.60
2022-12-09T20:39:18.955Z,12.10
2022-12-09T20:41:46.319Z,16.88
2022-12-09T20:44:14.808Z,11.57
2022-12-09T20:49:27.007Z,14.73
2022-12-09T20:51:54.504Z,13.77
2022-12-09T20:54:21.500Z,14.90
2022-12-09T20:56:48.926Z,13.75
2022-12-09T20:59:15.670Z,11.20
2022-12-09T21:01:43.647Z,14.70
2022-12-09T21:04:10.446Z,14.68
2022-12-09T21:06:40.148Z,11.98
2022-12-09T21:09:09.886Z,10.13
2022-12-09T21:11:37.365Z,12.05
2022-12-09T21:14:06.689Z,14.07
2022-12-09T21:16:37.093Z,12.27
2022-12-09T21:19:07.180Z,17.23
2022-12-09T21:21:37.909Z,12.23
2022-12-09T21:24:05.157Z,13.50
2022-12-09T21:26:32.170Z,16.92
2022-12-09T21:29:01.304Z,19.10
2022-12-09T21:31:31.054Z,17.33
2022-12-09T21:34:01.713Z,14.32
2022-12-09T21:36:35.259Z,15.85
2022-12-09T21:39:03.968Z,16.27
2022-12-09T21:41:33.610Z,18.38
2022-12-09T21:44:00.789Z,16.92
2022-12-09T21:46:32.986Z,16.05
2022-12-09T21:49:04.045Z,15.27
2022-12-09T21:51:32.974Z,15.85
2022-12-09T21:54:00.004Z,13.52
2022-12-09T21:56:33.340Z,17.50
2022-12-09T21:59:00.416Z,14.32
2022-12-09T22:01:39.125Z,15.55
2022-12-09T22:04:08.874Z,13.15
2022-12-09T22:06:36.144Z,13.52
2022-12-09T22:09:05.316Z,12.30
2022-12-09T22:11:35.095Z,12.93
2022-12-09T22:14:02.371Z,13.50
2022-12-09T22:16:32.665Z,12.40
2022-12-09T22:19:01.342Z,13.15
2022-12-09T22:21:30.092Z,12.48
2022-12-09T22:23:59.732Z,14.55
2022-12-09T22:26:27.136Z,14.20
2022-12-09T22:28:54.581Z,15.20
2022-12-09T22:31:26.731Z,13.23
2022-12-09T22:33:55.963Z,10.18
2022-12-09T22:36:23.073Z,15.77
2022-12-09T22:38:50.208Z,11.77
2022-12-09T22:41:22.717Z,15.70
2022-12-09T22:43:50.192Z,11.52
2022-12-09T22:46:20.115Z,12.82
2022-12-09T22:48:47.477Z,14.55
2022-12-09T22:51:23.673Z,15.05
2022-12-09T22:53:53.156Z,14.48
2022-12-09T22:56:20.770Z,11.90
2022-12-09T22:58:48.228Z,13.23
2022-12-09T23:01:18.037Z,11.75
2022-12-09T23:03:45.362Z,10.77
2022-12-09T23:06:13.516Z,12.30
2022-12-09T23:08:41.603Z,13.00
2022-12-09T23:11:14.344Z,11.48
2022-12-09T23:13:41.696Z,13.65
2022-12-09T23:16:12.714Z,13.80
2022-12-09T23:18:40.094Z,11.40
2022-12-09T23:21:13.405Z,13.20
2022-12-09T23:23:40.825Z,10.93
2022-12-09T23:26:10.600Z,15.35
2022-12-09T23:28:39.117Z,18.90
2022-12-09T23:31:08.848Z,12.48
2022-12-09T23:33:37.538Z,15.05
2022-12-09T23:36:10.198Z,16.25
2022-12-09T23:38:37.791Z,14.88
2022-12-09T23:41:05.187Z,11.45
2022-12-09T23:43:34.282Z,12.63
2022-12-09T23:46:11.379Z,13.77
2022-12-09T23:48:45.254Z,13.70
2022-12-09T23:51:27.056Z,13.88
2022-12-09T23:56:27.118Z,12.55
2022-12-09T23:58:56.137Z,14.90
